sensor_id;sensor_type;location;lat;lon;timestamp;P1;durP1;ratioP1;P2;durP2;ratioP2
46897;SDS011;32646;50.958;6.258;2023-11-21T00:02:02;15.27;;;6.93;;
46897;SDS011;32646;50.958;6.258;2023-11-21T00:04:29;13.18;;;6.88;;
46897;SDS011;32646;50.958;6.258;2023-11-21T00:06:55;13.02;;;6.43;;
46897;SDS011;32646;50.958;6.258;2023-11-21T00:09:22;14.55;;;7.15;;
46897;SDS011;32646;50.958;6.258;2023-11-21T00:11:49;18.98;;;8.23;;
46897;SDS011;32646;50.958;6.258;2023-11-21T00:14:15;12.80;;;6.78;;
46897;SDS011;32646;50.958;6.258;2023-11-21T00:16:42;14.90;;;7.10;;
46897;SDS011;32646;50.958;6.258;2023-11-21T00:19:09;20.33;;;7.18;;
46897;SDS011;32646;50.958;6.258;2023-11-21T00:21:35;20.20;;;7.70;;
46897;SDS011;32646;50.958;6.258;2023-11-21T00:24:02;17.88;;;7.78;;
46897;SDS011;32646;50.958;6.258;2023-11-21T00:26:29;16.25;;;7.45;;
46897;SDS011;32646;50.958;6.258;2023-11-21T00:28:55;15.27;;;7.03;;
46897;SDS011;32646;50.958;6.258;2023-11-21T00:31:22;16.52;;;7.82;;
46897;SDS011;32646;50.958;6.258;2023-11-21T00:33:48;17.67;;;8.48;;
46897;SDS011;32646;50.958;6.258;2023-11-21T00:36:15;15.32;;;7.30;;
46897;SDS011;32646;50.958;6.258;2023-11-21T00:38:42;17.70;;;7.97;;
46897;SDS011;32646;50.958;6.258;2023-11-21T00:41:08;15.82;;;7.57;;
46897;SDS011;32646;50.958;6.258;2023-11-21T00:43:35;20.10;;;7.95;;
46897;SDS011;32646;50.958;6.258;2023-11-21T00:46:05;17.65;;;8.30;;
46897;SDS011;32646;50.958;6.258;2023-11-21T00:48:32;19.23;;;8.50;;
46897;SDS011;32646;50.958;6.258;2023-11-21T00:50:59;15.68;;;7.90;;
46897;SDS011;32646;50.958;6.258;2023-11-21T00:53:25;18.27;;;8.40;;
46897;SDS011;32646;50.958;6.258;2023-11-21T00:55:52;18.95;;;9.02;;
46897;SDS011;32646;50.958;6.258;2023-11-21T00:58:19;21.38;;;8.73;;
46897;SDS011;32646;50.958;6.258;2023-11-21T01:00:45;16.50;;;7.15;;
46897;SDS011;32646;50.958;6.258;2023-11-21T01:03:12;19.83;;;7.88;;
46897;SDS011;32646;50.958;6.258;2023-11-21T01:05:39;18.65;;;8.10;;
46897;SDS011;32646;50.958;6.258;2023-11-21T01:08:05;16.77;;;8.05;;
46897;SDS011;32646;50.958;6.258;2023-11-21T01:10:32;18.50;;;8.20;;
46897;SDS011;32646;50.958;6.258;2023-11-21T01:12:59;17.85;;;7.38;;
46897;SDS011;32646;50.958;6.258;2023-11-21T01:15:26;18.75;;;8.80;;
46897;SDS011;32646;50.958;6.258;2023-11-21T01:17:52;20.20;;;8.98;;
46897;SDS011;32646;50.958;6.258;2023-11-21T01:20:19;20.23;;;9.05;;
46897;SDS011;32646;50.958;6.258;2023-11-21T01:22:46;18.10;;;8.00;;
46897;SDS011;32646;50.958;6.258;2023-11-21T01:25:12;18.77;;;8.35;;
46897;SDS011;32646;50.958;6.258;2023-11-21T01:27:39;19.05;;;8.45;;
46897;SDS011;32646;50.958;6.258;2023-11-21T01:30:06;20.45;;;9.52;;
46897;SDS011;32646;50.958;6.258;2023-11-21T01:32:32;20.38;;;8.93;;
46897;SDS011;32646;50.958;6.258;2023-11-21T01:34:59;20.05;;;8.98;;
46897;SDS011;32646;50.958;6.258;2023-11-21T01:37:26;20.80;;;9.40;;
46897;SDS011;32646;50.958;6.258;2023-11-21T01:39:55;18.85;;;8.18;;
46897;SDS011;32646;50.958;6.258;2023-11-21T01:42:22;21.52;;;8.68;;
46897;SDS011;32646;50.958;6.258;2023-11-21T01:44:48;19.73;;;8.52;;
46897;SDS011;32646;50.958;6.258;2023-11-21T01:47:15;24.90;;;9.50;;
46897;SDS011;32646;50.958;6.258;2023-11-21T01:49:43;21.48;;;8.90;;
46897;SDS011;32646;50.958;6.258;2023-11-21T01:52:11;20.98;;;9.27;;
46897;SDS011;32646;50.958;6.258;2023-11-21T01:54:38;20.27;;;8.77;;
46897;SDS011;32646;50.958;6.258;2023-11-21T01:57:06;19.55;;;9.02;;
46897;SDS011;32646;50.958;6.258;2023-11-21T01:59:42;21.58;;;8.10;;
46897;SDS011;32646;50.958;6.258;2023-11-21T02:02:10;19.38;;;9.68;;
46897;SDS011;32646;50.958;6.258;2023-11-21T02:04:37;21.98;;;9.30;;
46897;SDS011;32646;50.958;6.258;2023-11-21T02:07:04;22.63;;;8.93;;
46897;SDS011;32646;50.958;6.258;2023-11-21T02:09:31;20.67;;;8.93;;
46897;SDS011;32646;50.958;6.258;2023-11-21T02:11:58;21.10;;;9.27;;
46897;SDS011;32646;50.958;6.258;2023-11-21T02:14:25;21.15;;;9.23;;
46897;SDS011;32646;50.958;6.258;2023-11-21T02:16:52;18.30;;;7.38;;
46897;SDS011;32646;50.958;6.258;2023-11-21T02:19:21;19.90;;;8.85;;
46897;SDS011;32646;50.958;6.258;2023-11-21T02:21:51;22.77;;;9.68;;
46897;SDS011;32646;50.958;6.258;2023-11-21T02:24:22;18.58;;;8.00;;
46897;SDS011;32646;50.958;6.258;2023-11-21T02:26:49;20.48;;;8.05;;
46897;SDS011;32646;50.958;6.258;2023-11-21T02:29:16;16.90;;;7.35;;
46897;SDS011;32646;50.958;6.258;2023-11-21T02:31:46;21.90;;;9.25;;
46897;SDS011;32646;50.958;6.258;2023-11-21T02:34:16;18.05;;;7.60;;
46897;SDS011;32646;50.958;6.258;2023-11-21T02:36:44;18.98;;;7.72;;
46897;SDS011;32646;50.958;6.258;2023-11-21T02:39:11;20.08;;;8.90;;
46897;SDS011;32646;50.958;6.258;2023-11-21T02:41:38;20.30;;;8.55;;
46897;SDS011;32646;50.958;6.258;2023-11-21T02:44:05;19.90;;;8.32;;
46897;SDS011;32646;50.958;6.258;2023-11-21T02:46:33;24.38;;;9.48;;
46897;SDS011;32646;50.958;6.258;2023-11-21T02:49:03;18.63;;;8.15;;
46897;SDS011;32646;50.958;6.258;2023-11-21T02:51:30;20.48;;;8.45;;
46897;SDS011;32646;50.958;6.258;2023-11-21T02:53:56;20.55;;;8.80;;
46897;SDS011;32646;50.958;6.258;2023-11-21T02:56:23;21.20;;;9.15;;
46897;SDS011;32646;50.958;6.258;2023-11-21T02:58:55;21.80;;;8.30;;
46897;SDS011;32646;50.958;6.258;2023-11-21T03:01:22;19.20;;;8.68;;
46897;SDS011;32646;50.958;6.258;2023-11-21T03:03:49;19.80;;;8.25;;
46897;SDS011;32646;50.958;6.258;2023-11-21T03:06:16;23.77;;;9.25;;
46897;SDS011;32646;50.958;6.258;2023-11-21T03:08:43;20.90;;;8.65;;
46897;SDS011;32646;50.958;6.258;2023-11-21T03:11:09;18.17;;;9.18;;
46897;SDS011;32646;50.958;6.258;2023-11-21T03:13:36;19.17;;;8.80;;
46897;SDS011;32646;50.958;6.258;2023-11-21T03:16:03;22.55;;;9.73;;
46897;SDS011;32646;50.958;6.258;2023-11-21T03:18:30;25.42;;;10.35;;
46897;SDS011;32646;50.958;6.258;2023-11-21T03:20:57;23.30;;;8.98;;
46897;SDS011;32646;50.958;6.258;2023-11-21T03:23:23;21.70;;;8.98;;
46897;SDS011;32646;50.958;6.258;2023-11-21T03:25:50;22.27;;;8.80;;
46897;SDS011;32646;50.958;6.258;2023-11-21T03:28:17;20.13;;;9.43;;
46897;SDS011;32646;50.958;6.258;2023-11-21T03:30:43;24.42;;;9.85;;
46897;SDS011;32646;50.958;6.258;2023-11-21T03:33:10;23.85;;;9.55;;
46897;SDS011;32646;50.958;6.258;2023-11-21T03:35:37;19.40;;;9.65;;
46897;SDS011;32646;50.958;6.258;2023-11-21T03:38:03;20.25;;;8.90;;
46897;SDS011;32646;50.958;6.258;2023-11-21T03:40:30;21.20;;;9.68;;
46897;SDS011;32646;50.958;6.258;2023-11-21T03:42:56;18.17;;;8.13;;
46897;SDS011;32646;50.958;6.258;2023-11-21T03:45:23;25.00;;;9.23;;
46897;SDS011;32646;50.958;6.258;2023-11-21T03:47:50;20.35;;;9.93;;
46897;SDS011;32646;50.958;6.258;2023-11-21T03:50:17;21.67;;;8.82;;
46897;SDS011;32646;50.958;6.258;2023-11-21T03:52:43;23.60;;;8.30;;
46897;SDS011;32646;50.958;6.258;2023-11-21T03:55:10;21.70;;;8.95;;
46897;SDS011;32646;50.958;6.258;2023-11-21T03:57:37;20.60;;;8.80;;
46897;SDS011;32646;50.958;6.258;2023-11-21T04:00:03;25.50;;;10.32;;
46897;SDS011;32646;50.958;6.258;2023-11-21T04:02:30;23.55;;;9.52;;
46897;SDS011;32646;50.958;6.258;2023-11-21T04:04:57;23.42;;;9.60;;
46897;SDS011;32646;50.958;6.258;2023-11-21T04:07:24;22.50;;;10.25;;
46897;SDS011;32646;50.958;6.258;2023-11-21T04:09:51;27.65;;;9.43;;
46897;SDS011;32646;50.958;6.258;2023-11-21T04:12:18;24.63;;;8.88;;
46897;SDS011;32646;50.958;6.258;2023-11-21T04:14:44;23.20;;;9.73;;
46897;SDS011;32646;50.958;6.258;2023-11-21T04:17:11;16.85;;;7.60;;
46897;SDS011;32646;50.958;6.258;2023-11-21T04:19:38;23.45;;;10.00;;
46897;SDS011;32646;50.958;6.258;2023-11-21T04:22:05;23.90;;;9.63;;
46897;SDS011;32646;50.958;6.258;2023-11-21T04:24:31;22.98;;;9.05;;
46897;SDS011;32646;50.958;6.258;2023-11-21T04:26:58;18.23;;;8.55;;
46897;SDS011;32646;50.958;6.258;2023-11-21T04:29:25;24.27;;;10.13;;
46897;SDS011;32646;50.958;6.258;2023-11-21T04:31:51;21.55;;;9.18;;
46897;SDS011;32646;50.958;6.258;2023-11-21T04:34:18;18.63;;;8.18;;
46897;SDS011;32646;50.958;6.258;2023-11-21T04:36:45;17.35;;;8.23;;
46897;SDS011;32646;50.958;6.258;2023-11-21T04:39:11;19.08;;;8.20;;
46897;SDS011;32646;50.958;6.258;2023-11-21T04:41:38;21.00;;;8.35;;
46897;SDS011;32646;50.958;6.258;2023-11-21T04:44:05;20.02;;;8.88;;
46897;SDS011;32646;50.958;6.258;2023-11-21T04:46:32;23.63;;;9.18;;
46897;SDS011;32646;50.958;6.258;2023-11-21T04:48:59;24.25;;;8.95;;
46897;SDS011;32646;50.958;6.258;2023-11-21T04:51:26;21.25;;;8.10;;
46897;SDS011;32646;50.958;6.258;2023-11-21T04:53:52;20.35;;;8.20;;
46897;SDS011;32646;50.958;6.258;2023-11-21T04:56:19;22.20;;;8.65;;
46897;SDS011;32646;50.958;6.258;2023-11-21T04:58:46;21.80;;;9.30;;
46897;SDS011;32646;50.958;6.258;2023-11-21T05:01:12;29.27;;;9.77;;
46897;SDS011;32646;50.958;6.258;2023-11-21T05:03:39;21.48;;;8.13;;
46897;SDS011;32646;50.958;6.258;2023-11-21T05:06:09;24.67;;;9.80;;
46897;SDS011;32646;50.958;6.258;2023-11-21T05:08:36;20.58;;;7.65;;
46897;SDS011;32646;50.958;6.258;2023-11-21T05:11:02;26.40;;;9.23;;
46897;SDS011;32646;50.958;6.258;2023-11-21T05:13:29;20.80;;;9.30;;
46897;SDS011;32646;50.958;6.258;2023-11-21T05:15:57;20.45;;;8.95;;
46897;SDS011;32646;50.958;6.258;2023-11-21T05:18:24;22.88;;;8.45;;
46897;SDS011;32646;50.958;6.258;2023-11-21T05:20:51;23.05;;;9.00;;
46897;SDS011;32646;50.958;6.258;2023-11-21T05:23:18;21.10;;;7.88;;
46897;SDS011;32646;50.958;6.258;2023-11-21T05:25:44;20.65;;;7.80;;
46897;SDS011;32646;50.958;6.258;2023-11-21T05:28:11;19.92;;;7.93;;
46897;SDS011;32646;50.958;6.258;2023-11-21T05:30:38;18.95;;;6.97;;
46897;SDS011;32646;50.958;6.258;2023-11-21T05:33:05;23.58;;;7.65;;
46897;SDS011;32646;50.958;6.258;2023-11-21T05:35:32;22.70;;;8.75;;
46897;SDS011;32646;50.958;6.258;2023-11-21T05:37:58;21.05;;;8.80;;
46897;SDS011;32646;50.958;6.258;2023-11-21T05:40:25;24.48;;;7.82;;
46897;SDS011;32646;50.958;6.258;2023-11-21T05:42:52;21.75;;;8.30;;
46897;SDS011;32646;50.958;6.258;2023-11-21T05:45:18;21.08;;;8.45;;
46897;SDS011;32646;50.958;6.258;2023-11-21T05:47:46;20.02;;;8.20;;
46897;SDS011;32646;50.958;6.258;2023-11-21T05:50:14;21.30;;;8.20;;
46897;SDS011;32646;50.958;6.258;2023-11-21T05:52:46;19.83;;;7.53;;
46897;SDS011;32646;50.958;6.258;2023-11-21T05:55:13;23.20;;;8.70;;
46897;SDS011;32646;50.958;6.258;2023-11-21T05:57:40;22.35;;;8.20;;
46897;SDS011;32646;50.958;6.258;2023-11-21T06:00:09;24.98;;;9.00;;
46897;SDS011;32646;50.958;6.258;2023-11-21T06:02:40;21.63;;;7.60;;
46897;SDS011;32646;50.958;6.258;2023-11-21T06:05:07;19.00;;;8.35;;
46897;SDS011;32646;50.958;6.258;2023-11-21T06:07:35;29.67;;;9.85;;
46897;SDS011;32646;50.958;6.258;2023-11-21T06:10:06;31.90;;;9.60;;
46897;SDS011;32646;50.958;6.258;2023-11-21T06:12:34;23.63;;;8.15;;
46897;SDS011;32646;50.958;6.258;2023-11-21T06:15:01;25.75;;;9.35;;
46897;SDS011;32646;50.958;6.258;2023-11-21T06:17:31;24.65;;;9.43;;
46897;SDS011;32646;50.958;6.258;2023-11-21T06:19:58;26.92;;;8.90;;
46897;SDS011;32646;50.958;6.258;2023-11-21T06:22:25;28.63;;;9.77;;
46897;SDS011;32646;50.958;6.258;2023-11-21T06:24:51;28.38;;;8.85;;
46897;SDS011;32646;50.958;6.258;2023-11-21T06:27:18;26.17;;;8.85;;
46897;SDS011;32646;50.958;6.258;2023-11-21T06:29:45;28.15;;;10.05;;
46897;SDS011;32646;50.958;6.258;2023-11-21T06:32:11;29.52;;;10.20;;
46897;SDS011;32646;50.958;6.258;2023-11-21T06:34:39;31.33;;;11.10;;
46897;SDS011;32646;50.958;6.258;2023-11-21T06:37:05;28.50;;;9.30;;
46897;SDS011;32646;50.958;6.258;2023-11-21T06:39:32;26.25;;;9.95;;
46897;SDS011;32646;50.958;6.258;2023-11-21T06:41:59;33.22;;;9.73;;
46897;SDS011;32646;50.958;6.258;2023-11-21T06:44:25;24.85;;;10.43;;
46897;SDS011;32646;50.958;6.258;2023-11-21T06:46:52;32.22;;;10.15;;
46897;SDS011;32646;50.958;6.258;2023-11-21T06:49:19;31.13;;;9.68;;
46897;SDS011;32646;50.958;6.258;2023-11-21T06:51:45;37.28;;;10.27;;
46897;SDS011;32646;50.958;6.258;2023-11-21T06:54:12;33.45;;;10.93;;
46897;SDS011;32646;50.958;6.258;2023-11-21T06:56:39;31.45;;;10.70;;
46897;SDS011;32646;50.958;6.258;2023-11-21T06:59:05;34.10;;;10.45;;
46897;SDS011;32646;50.958;6.258;2023-11-21T07:01:32;38.88;;;11.40;;
46897;SDS011;32646;50.958;6.258;2023-11-21T07:03:59;38.35;;;12.18;;
46897;SDS011;32646;50.958;6.258;2023-11-21T07:06:25;35.38;;;11.15;;
46897;SDS011;32646;50.958;6.258;2023-11-21T07:08:52;38.60;;;11.75;;
46897;SDS011;32646;50.958;6.258;2023-11-21T07:11:19;38.90;;;11.95;;
46897;SDS011;32646;50.958;6.258;2023-11-21T07:13:45;36.13;;;12.27;;
46897;SDS011;32646;50.958;6.258;2023-11-21T07:16:12;38.05;;;12.57;;
46897;SDS011;32646;50.958;6.258;2023-11-21T07:18:39;40.00;;;11.13;;
46897;SDS011;32646;50.958;6.258;2023-11-21T07:21:05;39.35;;;11.10;;
46897;SDS011;32646;50.958;6.258;2023-11-21T07:23:32;38.28;;;11.15;;
46897;SDS011;32646;50.958;6.258;2023-11-21T07:25:59;41.40;;;10.75;;
46897;SDS011;32646;50.958;6.258;2023-11-21T07:28:26;46.42;;;12.48;;
46897;SDS011;32646;50.958;6.258;2023-11-21T07:30:52;45.88;;;12.18;;
46897;SDS011;32646;50.958;6.258;2023-11-21T07:33:19;38.13;;;10.93;;
46897;SDS011;32646;50.958;6.258;2023-11-21T07:35:46;37.75;;;10.85;;
46897;SDS011;32646;50.958;6.258;2023-11-21T07:38:12;40.65;;;13.10;;
46897;SDS011;32646;50.958;6.258;2023-11-21T07:40:39;42.30;;;11.88;;
46897;SDS011;32646;50.958;6.258;2023-11-21T07:43:06;36.75;;;10.98;;
46897;SDS011;32646;50.958;6.258;2023-11-21T07:45:32;36.33;;;10.88;;
46897;SDS011;32646;50.958;6.258;2023-11-21T07:47:59;42.65;;;12.30;;
46897;SDS011;32646;50.958;6.258;2023-11-21T07:50:26;45.38;;;11.88;;
46897;SDS011;32646;50.958;6.258;2023-11-21T07:52:52;42.42;;;10.75;;
46897;SDS011;32646;50.958;6.258;2023-11-21T07:55:19;45.15;;;10.10;;
46897;SDS011;32646;50.958;6.258;2023-11-21T07:57:46;41.70;;;10.93;;
46897;SDS011;32646;50.958;6.258;2023-11-21T08:00:13;43.28;;;10.82;;
46897;SDS011;32646;50.958;6.258;2023-11-21T08:02:40;38.15;;;10.18;;
46897;SDS011;32646;50.958;6.258;2023-11-21T08:05:07;37.35;;;10.52;;
46897;SDS011;32646;50.958;6.258;2023-11-21T08:07:41;37.58;;;9.57;;
46897;SDS011;32646;50.958;6.258;2023-11-21T08:10:07;39.47;;;10.00;;
46897;SDS011;32646;50.958;6.258;2023-11-21T08:12:34;42.70;;;11.40;;
46897;SDS011;32646;50.958;6.258;2023-11-21T08:15:01;48.95;;;10.70;;
46897;SDS011;32646;50.958;6.258;2023-11-21T08:17:28;44.25;;;11.55;;
46897;SDS011;32646;50.958;6.258;2023-11-21T08:19:55;42.85;;;11.15;;
46897;SDS011;32646;50.958;6.258;2023-11-21T08:22:21;39.33;;;11.52;;
46897;SDS011;32646;50.958;6.258;2023-11-21T08:24:48;41.28;;;10.70;;
46897;SDS011;32646;50.958;6.258;2023-11-21T08:27:15;43.60;;;11.23;;
46897;SDS011;32646;50.958;6.258;2023-11-21T08:29:42;38.05;;;9.88;;
46897;SDS011;32646;50.958;6.258;2023-11-21T08:32:09;41.58;;;10.50;;
46897;SDS011;32646;50.958;6.258;2023-11-21T08:34:35;42.13;;;9.90;;
46897;SDS011;32646;50.958;6.258;2023-11-21T08:37:02;45.45;;;11.80;;
46897;SDS011;32646;50.958;6.258;2023-11-21T08:39:29;42.22;;;12.35;;
46897;SDS011;32646;50.958;6.258;2023-11-21T08:41:57;45.28;;;12.40;;
46897;SDS011;32646;50.958;6.258;2023-11-21T08:44:23;36.00;;;10.82;;
46897;SDS011;32646;50.958;6.258;2023-11-21T08:46:50;35.38;;;11.02;;
46897;SDS011;32646;50.958;6.258;2023-11-21T08:49:17;42.67;;;11.73;;
46897;SDS011;32646;50.958;6.258;2023-11-21T08:51:44;33.95;;;9.30;;
46897;SDS011;32646;50.958;6.258;2023-11-21T08:54:11;38.63;;;11.38;;
46897;SDS011;32646;50.958;6.258;2023-11-21T08:56:37;34.10;;;10.40;;
46897;SDS011;32646;50.958;6.258;2023-11-21T08:59:05;36.95;;;9.73;;
46897;SDS011;32646;50.958;6.258;2023-11-21T09:01:32;34.85;;;10.73;;
46897;SDS011;32646;50.958;6.258;2023-11-21T09:03:59;38.28;;;10.88;;
46897;SDS011;32646;50.958;6.258;2023-11-21T09:06:26;44.50;;;12.57;;
46897;SDS011;32646;50.958;6.258;2023-11-21T09:08:52;41.10;;;9.00;;
46897;SDS011;32646;50.958;6.258;2023-11-21T09:11:19;34.25;;;10.25;;
46897;SDS011;32646;50.958;6.258;2023-11-21T09:13:46;34.83;;;10.02;;
46897;SDS011;32646;50.958;6.258;2023-11-21T09:16:13;40.70;;;11.07;;
46897;SDS011;32646;50.958;6.258;2023-11-21T09:18:40;34.45;;;9.73;;
46897;SDS011;32646;50.958;6.258;2023-11-21T09:21:07;36.05;;;11.13;;
46897;SDS011;32646;50.958;6.258;2023-11-21T09:23:35;31.67;;;8.85;;
46897;SDS011;32646;50.958;6.258;2023-11-21T09:26:02;34.03;;;9.82;;
46897;SDS011;32646;50.958;6.258;2023-11-21T09:28:28;38.90;;;10.73;;
46897;SDS011;32646;50.958;6.258;2023-11-21T09:30:55;32.63;;;9.93;;
46897;SDS011;32646;50.958;6.258;2023-11-21T09:33:22;30.25;;;9.38;;
46897;SDS011;32646;50.958;6.258;2023-11-21T09:35:48;27.23;;;8.88;;
46897;SDS011;32646;50.958;6.258;2023-11-21T09:38:15;37.05;;;9.63;;
46897;SDS011;32646;50.958;6.258;2023-11-21T09:40:42;37.38;;;10.18;;
46897;SDS011;32646;50.958;6.258;2023-11-21T09:43:10;36.42;;;10.25;;
46897;SDS011;32646;50.958;6.258;2023-11-21T09:45:48;32.92;;;10.05;;
46897;SDS011;32646;50.958;6.258;2023-11-21T09:48:23;33.33;;;10.98;;
46897;SDS011;32646;50.958;6.258;2023-11-21T09:50:52;33.65;;;9.63;;
46897;SDS011;32646;50.958;6.258;2023-11-21T09:53:21;30.65;;;9.60;;
46897;SDS011;32646;50.958;6.258;2023-11-21T09:55:50;33.90;;;9.18;;
46897;SDS011;32646;50.958;6.258;2023-11-21T09:58:18;31.15;;;9.27;;
46897;SDS011;32646;50.958;6.258;2023-11-21T10:00:46;28.10;;;8.73;;
46897;SDS011;32646;50.958;6.258;2023-11-21T10:03:14;31.65;;;9.07;;
46897;SDS011;32646;50.958;6.258;2023-11-21T10:05:42;27.42;;;8.68;;
46897;SDS011;32646;50.958;6.258;2023-11-21T10:08:10;27.23;;;9.35;;
46897;SDS011;32646;50.958;6.258;2023-11-21T10:10:38;25.40;;;7.22;;
46897;SDS011;32646;50.958;6.258;2023-11-21T10:13:11;27.08;;;8.18;;
46897;SDS011;32646;50.958;6.258;2023-11-21T10:15:39;27.13;;;8.35;;
46897;SDS011;32646;50.958;6.258;2023-11-21T10:18:07;29.15;;;8.57;;
46897;SDS011;32646;50.958;6.258;2023-11-21T10:20:35;34.33;;;9.68;;
46897;SDS011;32646;50.958;6.258;2023-11-21T10:23:01;31.02;;;8.90;;
46897;SDS011;32646;50.958;6.258;2023-11-21T10:25:28;28.70;;;9.68;;
46897;SDS011;32646;50.958;6.258;2023-11-21T10:28:01;27.98;;;9.00;;
46897;SDS011;32646;50.958;6.258;2023-11-21T10:30:32;30.38;;;9.52;;
46897;SDS011;32646;50.958;6.258;2023-11-21T10:33:00;24.58;;;8.00;;
46897;SDS011;32646;50.958;6.258;2023-11-21T10:35:38;28.40;;;9.85;;
46897;SDS011;32646;50.958;6.258;2023-11-21T10:38:05;23.15;;;7.78;;
46897;SDS011;32646;50.958;6.258;2023-11-21T10:40:32;26.75;;;8.95;;
46897;SDS011;32646;50.958;6.258;2023-11-21T10:43:09;32.70;;;10.77;;
46897;SDS011;32646;50.958;6.258;2023-11-21T10:45:37;28.27;;;8.75;;
46897;SDS011;32646;50.958;6.258;2023-11-21T10:48:07;29.40;;;9.02;;
46897;SDS011;32646;50.958;6.258;2023-11-21T10:50:35;30.75;;;9.45;;
46897;SDS011;32646;50.958;6.258;2023-11-21T10:53:02;28.90;;;8.95;;
46897;SDS011;32646;50.958;6.258;2023-11-21T10:55:30;30.70;;;9.40;;
46897;SDS011;32646;50.958;6.258;2023-11-21T10:58:01;25.65;;;9.73;;
46897;SDS011;32646;50.958;6.258;2023-11-21T11:00:29;31.15;;;9.60;;
46897;SDS011;32646;50.958;6.258;2023-11-21T11:02:57;30.60;;;8.63;;
46897;SDS011;32646;50.958;6.258;2023-11-21T11:05:24;27.85;;;9.25;;
46897;SDS011;32646;50.958;6.258;2023-11-21T11:08:04;27.80;;;8.65;;
46897;SDS011;32646;50.958;6.258;2023-11-21T11:10:34;28.85;;;9.10;;
46897;SDS011;32646;50.958;6.258;2023-11-21T11:13:00;25.38;;;8.98;;
46897;SDS011;32646;50.958;6.258;2023-11-21T11:15:28;28.42;;;9.57;;
46897;SDS011;32646;50.958;6.258;2023-11-21T11:17:54;23.63;;;7.85;;
46897;SDS011;32646;50.958;6.258;2023-11-21T11:20:22;28.02;;;8.50;;
46897;SDS011;32646;50.958;6.258;2023-11-21T11:22:55;26.83;;;8.80;;
46897;SDS011;32646;50.958;6.258;2023-11-21T11:26:05;26.90;;;9.05;;
46897;SDS011;32646;50.958;6.258;2023-11-21T11:29:23;26.88;;;8.48;;
46897;SDS011;32646;50.958;6.258;2023-11-21T11:34:28;27.83;;;8.77;;
46897;SDS011;32646;50.958;6.258;2023-11-21T11:37:03;22.02;;;7.72;;
46897;SDS011;32646;50.958;6.258;2023-11-21T11:39:38;28.75;;;9.27;;
46897;SDS011;32646;50.958;6.258;2023-11-21T11:42:07;27.20;;;8.70;;
46897;SDS011;32646;50.958;6.258;2023-11-21T11:45:08;26.83;;;8.20;;
46897;SDS011;32646;50.958;6.258;2023-11-21T11:47:28;29.02;;;8.77;;
46897;SDS011;32646;50.958;6.258;2023-11-21T11:55:16;21.63;;;7.95;;
46897;SDS011;32646;50.958;6.258;2023-11-21T11:57:44;21.58;;;7.78;;
46897;SDS011;32646;50.958;6.258;2023-11-21T12:00:16;24.65;;;7.50;;
46897;SDS011;32646;50.958;6.258;2023-11-21T12:02:50;20.77;;;7.47;;
46897;SDS011;32646;50.958;6.258;2023-11-21T12:05:19;21.38;;;7.60;;
46897;SDS011;32646;50.958;6.258;2023-11-21T12:10:17;20.60;;;7.60;;
46897;SDS011;32646;50.958;6.258;2023-11-21T12:12:47;19.90;;;7.15;;
46897;SDS011;32646;50.958;6.258;2023-11-21T12:15:15;18.77;;;6.60;;
46897;SDS011;32646;50.958;6.258;2023-11-21T12:17:43;23.65;;;8.23;;
46897;SDS011;32646;50.958;6.258;2023-11-21T12:20:13;22.48;;;7.85;;
46897;SDS011;32646;50.958;6.258;2023-11-21T12:22:41;24.20;;;7.97;;
46897;SDS011;32646;50.958;6.258;2023-11-21T12:25:27;21.90;;;6.95;;
46897;SDS011;32646;50.958;6.258;2023-11-21T12:27:55;22.45;;;7.53;;
46897;SDS011;32646;50.958;6.258;2023-11-21T12:30:23;20.27;;;7.15;;
46897;SDS011;32646;50.958;6.258;2023-11-21T12:32:53;22.17;;;7.90;;
46897;SDS011;32646;50.958;6.258;2023-11-21T12:35:22;20.55;;;6.60;;
46897;SDS011;32646;50.958;6.258;2023-11-21T12:37:51;22.05;;;7.32;;
46897;SDS011;32646;50.958;6.258;2023-11-21T12:40:19;20.35;;;7.35;;
46897;SDS011;32646;50.958;6.258;2023-11-21T12:42:46;19.67;;;7.82;;
46897;SDS011;32646;50.958;6.258;2023-11-21T12:47:48;24.35;;;7.32;;
46897;SDS011;32646;50.958;6.258;2023-11-21T12:50:19;21.55;;;6.95;;
46897;SDS011;32646;50.958;6.258;2023-11-21T12:52:47;23.80;;;7.45;;
46897;SDS011;32646;50.958;6.258;2023-11-21T12:55:18;20.90;;;7.70;;
46897;SDS011;32646;50.958;6.258;2023-11-21T12:57:55;15.90;;;5.95;;
46897;SDS011;32646;50.958;6.258;2023-11-21T13:00:29;18.80;;;6.97;;
46897;SDS011;32646;50.958;6.258;2023-11-21T13:02:59;18.98;;;5.93;;
46897;SDS011;32646;50.958;6.258;2023-11-21T13:05:26;20.48;;;6.95;;
46897;SDS011;32646;50.958;6.258;2023-11-21T13:07:55;17.60;;;6.47;;
46897;SDS011;32646;50.958;6.258;2023-11-21T13:10:23;16.90;;;6.65;;
46897;SDS011;32646;50.958;6.258;2023-11-21T13:12:51;19.52;;;7.30;;
46897;SDS011;32646;50.958;6.258;2023-11-21T13:15:18;20.33;;;7.18;;
46897;SDS011;32646;50.958;6.258;2023-11-21T13:17:45;18.45;;;6.97;;
46897;SDS011;32646;50.958;6.258;2023-11-21T13:20:12;17.55;;;5.60;;
46897;SDS011;32646;50.958;6.258;2023-11-21T13:22:39;17.90;;;6.10;;
46897;SDS011;32646;50.958;6.258;2023-11-21T13:25:06;14.88;;;5.68;;
46897;SDS011;32646;50.958;6.258;2023-11-21T13:27:33;12.55;;;4.60;;
46897;SDS011;32646;50.958;6.258;2023-11-21T13:29:59;17.83;;;5.68;;
46897;SDS011;32646;50.958;6.258;2023-11-21T13:32:26;16.08;;;5.63;;
46897;SDS011;32646;50.958;6.258;2023-11-21T13:34:53;22.48;;;6.07;;
46897;SDS011;32646;50.958;6.258;2023-11-21T13:37:19;17.75;;;4.82;;
46897;SDS011;32646;50.958;6.258;2023-11-21T13:39:46;15.27;;;5.30;;
46897;SDS011;32646;50.958;6.258;2023-11-21T13:42:14;14.07;;;5.75;;
46897;SDS011;32646;50.958;6.258;2023-11-21T13:44:41;16.52;;;6.43;;
46897;SDS011;32646;50.958;6.258;2023-11-21T13:47:08;19.33;;;6.60;;
46897;SDS011;32646;50.958;6.258;2023-11-21T13:49:34;16.95;;;5.90;;
46897;SDS011;32646;50.958;6.258;2023-11-21T13:52:01;15.05;;;4.57;;
46897;SDS011;32646;50.958;6.258;2023-11-21T13:54:28;10.18;;;3.85;;
46897;SDS011;32646;50.958;6.258;2023-11-21T13:56:54;14.40;;;4.05;;
46897;SDS011;32646;50.958;6.258;2023-11-21T13:59:21;14.00;;;4.00;;
46897;SDS011;32646;50.958;6.258;2023-11-21T14:01:48;13.45;;;3.75;;
46897;SDS011;32646;50.958;6.258;2023-11-21T14:04:15;11.27;;;4.70;;
46897;SDS011;32646;50.958;6.258;2023-11-21T14:06:45;14.15;;;5.00;;
46897;SDS011;32646;50.958;6.258;2023-11-21T14:09:13;14.32;;;4.20;;
46897;SDS011;32646;50.958;6.258;2023-11-21T14:11:40;12.57;;;4.82;;
46897;SDS011;32646;50.958;6.258;2023-11-21T14:14:13;13.38;;;4.40;;
46897;SDS011;32646;50.958;6.258;2023-11-21T14:16:40;14.60;;;4.32;;
46897;SDS011;32646;50.958;6.258;2023-11-21T14:19:07;15.38;;;4.03;;
46897;SDS011;32646;50.958;6.258;2023-11-21T14:21:33;12.95;;;4.10;;
46897;SDS011;32646;50.958;6.258;2023-11-21T14:24:00;14.85;;;4.68;;
46897;SDS011;32646;50.958;6.258;2023-11-21T14:26:27;12.63;;;5.05;;
46897;SDS011;32646;50.958;6.258;2023-11-21T14:28:53;14.02;;;4.85;;
46897;SDS011;32646;50.958;6.258;2023-11-21T14:31:20;14.90;;;6.35;;
46897;SDS011;32646;50.958;6.258;2023-11-21T14:33:47;14.82;;;5.57;;
46897;SDS011;32646;50.958;6.258;2023-11-21T14:36:13;15.32;;;6.13;;
46897;SDS011;32646;50.958;6.258;2023-11-21T14:38:40;17.83;;;6.75;;
46897;SDS011;32646;50.958;6.258;2023-11-21T14:41:07;21.25;;;6.55;;
46897;SDS011;32646;50.958;6.258;2023-11-21T14:43:34;20.80;;;7.50;;
46897;SDS011;32646;50.958;6.258;2023-11-21T14:46:01;19.55;;;7.38;;
46897;SDS011;32646;50.958;6.258;2023-11-21T14:48:29;17.90;;;7.32;;